Time;durP1;ratioP1;P1;durP2;ratioP2;P2;SDS_P1;SDS_P2;PMS_P1;PMS_P2;Temp;Humidity;BMP_temperature;BMP_pressure;BME280_temperature;BME280_humidity;BME280_pressure;Samples;Min_cycle;Max_cycle;Signal;HPM_P1;HPM_P2
2021/12/12 00:00:31;;;;;;;10.70;4.30;;;;;;;10.42;99.26;95257.19;5094555;28;20487;-37
2021/12/12 00:03:03;;;;;;;12.00;4.53;;;;;;;10.48;99.93;95282.63;5094415;28;20427;-36
2021/12/12 00:05:36;;;;;;;2.33;2.13;;;;;;;10.60;100.00;95280.47;5094536;28;20493;-36
2021/12/12 00:08:04;;;;;;;13.13;5.27;;;;;;;10.57;100.00;95278.34;5094511;28;20437;-36
2021/12/12 00:10:35;;;;;;;7.13;2.80;;;;;;;10.59;99.37;95284.16;5093993;28;20454;-36
2021/12/12 00:13:08;;;;;;;7.13;3.50;;;;;;;10.52;100.00;95296.94;5094408;28;20424;-36
2021/12/12 00:15:36;;;;;;;4.53;2.53;;;;;;;10.55;99.77;95288.44;5094454;28;20427;-35
2021/12/12 00:18:04;;;;;;;3.90;3.47;;;;;;;10.56;100.00;95292.69;5094581;28;20450;-36
2021/12/12 00:20:36;;;;;;;5.47;3.30;;;;;;;10.54;100.00;95308.09;5094171;28;20498;-37
2021/12/12 00:23:04;;;;;;;8.77;4.83;;;;;;;10.43;100.00;95299.38;5094488;28;20771;-36
2021/12/12 00:25:37;;;;;;;5.73;4.40;;;;;;;10.36;100.00;95312.09;5094979;28;20454;-36
2021/12/12 00:28:05;;;;;;;7.50;5.10;;;;;;;10.14;100.00;95315.06;5094096;28;20867;-37
2021/12/12 00:30:33;;;;;;;5.87;4.30;;;;;;;10.00;100.00;95320.16;5094386;28;20446;-37
2021/12/12 00:33:01;;;;;;;18.07;8.37;;;;;;;9.89;100.00;95323.84;5094004;28;20926;-37
2021/12/12 00:35:28;;;;;;;30.40;11.70;;;;;;;9.79;100.00;95329.97;5093984;28;20450;-36
2021/12/12 00:38:00;;;;;;;9.13;5.70;;;;;;;9.63;100.00;95341.63;5094290;28;20450;-37
2021/12/12 00:40:31;;;;;;;8.13;5.97;;;;;;;9.45;99.67;95328.94;5094149;28;21004;-37
2021/12/12 00:43:02;;;;;;;9.77;5.40;;;;;;;9.24;98.15;95350.09;5093962;28;20439;-36
2021/12/12 00:45:30;;;;;;;6.13;4.67;;;;;;;9.02;97.68;95361.69;5094123;28;20427;-36
2021/12/12 00:47:59;;;;;;;10.63;5.50;;;;;;;8.74;97.44;95362.13;5093766;28;20439;-37
2021/12/12 00:50:30;;;;;;;11.97;4.07;;;;;;;8.54;98.90;95363.66;5093693;28;20446;-37
2021/12/12 00:52:59;;;;;;;9.73;5.70;;;;;;;8.46;100.00;95371.28;5094092;28;20431;-36
2021/12/12 00:55:27;;;;;;;4.43;4.00;;;;;;;8.26;100.00;95372.72;5093664;28;20442;-37
2021/12/12 00:57:55;;;;;;;10.90;5.77;;;;;;;8.17;100.00;95385.63;5093664;28;20918;-36
2021/12/12 01:00:27;;;;;;;4.37;3.30;;;;;;;8.06;100.00;95405.09;5093909;28;20569;-37
2021/12/12 01:02:55;;;;;;;3.67;3.37;;;;;;;7.87;100.00;95403.91;5093417;28;20484;-36
2021/12/12 01:05:24;;;;;;;4.83;2.93;;;;;;;7.52;98.32;95421.84;5093855;28;20526;-36
2021/12/12 01:07:51;;;;;;;3.10;2.80;;;;;;;7.26;100.00;95412.88;5093791;28;20465;-36
2021/12/12 01:10:25;;;;;;;4.97;2.70;;;;;;;7.16;100.00;95407.47;5093473;28;20812;-35
2021/12/12 01:12:55;;;;;;;4.77;2.47;;;;;;;7.15;100.00;95408.53;5093760;28;20790;-35
2021/12/12 01:15:27;;;;;;;3.07;2.07;;;;;;;7.16;100.00;95403.03;5093741;28;20469;-36
2021/12/12 01:17:57;;;;;;;12.63;3.23;;;;;;;7.23;100.00;95376.44;5093749;28;20427;-36
2021/12/12 01:20:29;;;;;;;3.43;3.13;;;;;;;7.41;100.00;95350.72;5094531;28;21021;-37
2021/12/12 01:23:00;;;;;;;9.40;2.67;;;;;;;7.53;100.00;95335.50;5097639;28;20963;-37
2021/12/12 01:25:33;;;;;;;3.17;2.87;;;;;;;7.64;100.00;95317.88;5097988;28;20430;-36
2021/12/12 01:28:00;;;;;;;5.37;2.73;;;;;;;7.69;100.00;95302.84;5097538;28;20907;-37
2021/12/12 01:30:29;;;;;;;4.60;3.00;;;;;;;7.78;100.00;95306.59;5097414;28;20443;-36
2021/12/12 01:32:58;;;;;;;2.30;2.10;;;;;;;7.78;100.00;95303.16;5097508;28;20445;-36
2021/12/12 01:35:26;;;;;;;2.63;2.13;;;;;;;7.60;100.00;95270.03;5097733;28;20455;-36
2021/12/12 01:40:41;;;;;;;10.30;3.67;;;;;;;7.39;100.00;95227.66;5097035;28;20487;-37
2021/12/12 01:43:20;;;;;;;13.10;4.97;;;;;;;7.42;100.00;95246.66;5097668;28;20485;-36
2021/12/12 01:45:52;;;;;;;4.93;3.07;;;;;;;7.22;100.00;95242.84;5097295;28;20430;-37
2021/12/12 01:48:22;;;;;;;6.70;3.27;;;;;;;7.07;100.00;95240.88;5097497;28;20450;-37
2021/12/12 01:50:52;;;;;;;8.60;5.77;;;;;;;7.09;100.00;95259.09;5097174;28;20484;-36
2021/12/12 01:53:24;;;;;;;11.10;5.83;;;;;;;7.07;100.00;95282.31;5097671;28;20446;-37
2021/12/12 01:55:56;;;;;;;10.87;6.23;;;;;;;7.09;100.00;95291.56;5097112;28;20515;-37
2021/12/12 01:58:26;;;;;;;6.93;6.23;;;;;;;7.13;100.00;95310.34;5097005;28;20431;-37
2021/12/12 02:00:57;;;;;;;13.40;5.77;;;;;;;7.13;100.00;95336.72;5096907;28;20981;-37
2021/12/12 02:03:28;;;;;;;10.77;5.27;;;;;;;7.14;100.00;95362.06;5096682;28;20550;-37
2021/12/12 02:05:57;;;;;;;7.63;5.47;;;;;;;7.13;100.00;95382.38;5096865;28;20443;-37
2021/12/12 02:08:27;;;;;;;4.83;3.90;;;;;;;7.14;100.00;95383.19;5096823;28;20541;-37
2021/12/12 02:11:04;;;;;;;9.93;6.80;;;;;;;7.10;100.00;95382.09;5096699;28;20454;-37
2021/12/12 02:13:37;;;;;;;11.43;6.37;;;;;;;7.03;100.00;95389.41;5096682;28;20431;-36
2021/12/12 02:16:06;;;;;;;10.87;6.97;;;;;;;7.00;100.00;95397.81;5097313;28;20775;-36
2021/12/12 02:18:37;;;;;;;16.10;7.73;;;;;;;6.98;100.00;95383.03;5096576;28;20533;-36
2021/12/12 02:21:14;;;;;;;15.93;9.23;;;;;;;6.96;100.00;95393.03;5096472;28;20479;-37
2021/12/12 02:24:13;;;;;;;7.67;6.00;;;;;;;7.00;100.00;95413.66;5096543;28;20784;-37
2021/12/12 02:35:15;;;;;;;20.87;12.50;;;;;;;7.01;100.00;95387.00;5096467;28;20452;-37
2021/12/12 02:37:44;;;;;;;21.30;12.90;;;;;;;6.97;100.00;95381.44;5096685;28;20518;-37
2021/12/12 02:40:18;;;;;;;14.23;10.50;;;;;;;6.95;100.00;95385.38;5096380;28;20488;-37
2021/12/12 02:42:47;;;;;;;10.70;6.83;;;;;;;6.94;100.00;95395.13;5096262;28;20924;-37
2021/12/12 02:45:17;;;;;;;18.90;9.20;;;;;;;6.96;100.00;95398.31;5096224;28;20525;-36
2021/12/12 02:47:48;;;;;;;8.90;6.00;;;;;;;6.90;100.00;95372.91;5096115;28;20431;-37
2021/12/12 02:50:21;;;;;;;10.30;6.83;;;;;;;7.01;100.00;95394.13;5096630;28;20485;-37
2021/12/12 02:52:52;;;;;;;8.03;6.17;;;;;;;6.94;100.00;95389.84;5096160;28;20431;-38
2021/12/12 02:55:24;;;;;;;9.80;6.73;;;;;;;6.93;100.00;95398.03;5096372;28;20419;-37
2021/12/12 02:57:53;;;;;;;7.90;6.03;;;;;;;6.93;100.00;95404.09;5095982;28;20427;-37
2021/12/12 03:00:23;;;;;;;21.50;10.40;;;;;;;6.91;100.00;95406.19;5096161;28;20478;-37
2021/12/12 03:02:57;;;;;;;16.93;9.37;;;;;;;6.93;100.00;95404.09;5095731;28;20450;-37
2021/12/12 03:05:27;;;;;;;13.67;8.57;;;;;;;6.87;100.00;95415.63;5096031;28;20445;-37
2021/12/12 03:07:56;;;;;;;12.13;7.60;;;;;;;6.82;100.00;95418.22;5095977;28;20429;-37
2021/12/12 03:10:30;;;;;;;6.80;5.23;;;;;;;6.76;100.00;95424.47;5095624;28;20957;-37
2021/12/12 03:12:57;;;;;;;11.33;5.40;;;;;;;6.63;100.00;95419.56;5095573;28;20518;-37
2021/12/12 03:15:28;;;;;;;17.30;8.50;;;;;;;6.52;100.00;95414.16;5095829;28;20453;-37
2021/12/12 03:17:58;;;;;;;12.87;7.30;;;;;;;6.48;100.00;95407.75;5095508;28;20434;-37
2021/12/12 03:20:32;;;;;;;18.07;9.77;;;;;;;6.45;100.00;95426.69;5095336;28;20932;-37
2021/12/12 03:23:05;;;;;;;19.67;8.77;;;;;;;6.34;100.00;95425.75;5095657;28;20480;-36
2021/12/12 03:25:37;;;;;;;12.47;8.90;;;;;;;6.28;100.00;95421.47;5095631;28;20442;-37
2021/12/12 03:28:07;;;;;;;9.63;7.00;;;;;;;6.34;100.00;95427.59;5095579;28;20431;-37
2021/12/12 03:30:39;;;;;;;11.27;6.20;;;;;;;6.34;100.00;95427.59;5095299;28;20906;-37
2021/12/12 03:33:07;;;;;;;13.70;7.97;;;;;;;6.33;100.00;95426.81;5095230;28;20870;-37
2021/12/12 03:35:35;;;;;;;15.23;11.93;;;;;;;6.33;100.00;95426.00;5095149;28;20950;-37
2021/12/12 03:38:04;;;;;;;11.77;7.30;;;;;;;6.29;100.00;95422.25;5095044;28;20449;-37
2021/12/12 03:40:38;;;;;;;14.27;7.33;;;;;;;6.27;100.00;95424.34;5094983;28;20531;-37
2021/12/12 03:43:08;;;;;;;10.30;6.80;;;;;;;6.28;100.00;95424.09;5095129;28;20809;-37
2021/12/12 03:45:36;;;;;;;15.23;8.90;;;;;;;6.28;100.00;95433.84;5094540;28;20914;-37
2021/12/12 03:48:08;;;;;;;17.70;7.80;;;;;;;6.26;100.00;95430.63;5094873;28;20445;-37
2021/12/12 03:50:38;;;;;;;16.60;7.43;;;;;;;6.23;100.00;95431.94;5095114;28;20829;-36
2021/12/12 03:53:06;;;;;;;20.07;10.80;;;;;;;6.18;100.00;95433.72;5094812;28;20506;-37
2021/12/12 03:55:36;;;;;;;115.17;43.37;;;;;;;6.11;100.00;95445.22;5094668;28;20439;-37
2021/12/12 03:58:06;;;;;;;31.17;15.33;;;;;;;5.97;100.00;95459.72;5094977;28;20530;-37
2021/12/12 04:00:38;;;;;;;25.20;15.37;;;;;;;5.87;100.00;95472.69;5094530;28;20490;-36
2021/12/12 04:03:07;;;;;;;27.77;14.27;;;;;;;5.81;100.00;95481.53;5094698;28;20434;-37
2021/12/12 04:05:36;;;;;;;25.50;12.23;;;;;;;5.66;100.00;95461.84;5094513;28;20933;-37
2021/12/12 04:08:04;;;;;;;16.27;9.70;;;;;;;5.81;100.00;95494.72;5094782;28;20458;-36
2021/12/12 04:10:32;;;;;;;16.13;10.17;;;;;;;5.82;100.00;95497.13;5094417;28;21017;-36
2021/12/12 04:13:01;;;;;;;15.03;10.10;;;;;;;5.82;100.00;95491.84;5094376;28;20443;-37
2021/12/12 04:15:28;;;;;;;18.03;8.70;;;;;;;5.86;100.00;95500.09;5094411;28;20449;-36
2021/12/12 04:17:56;;;;;;;17.90;9.60;;;;;;;5.90;100.00;95485.41;5094244;28;20443;-38
2021/12/12 04:20:26;;;;;;;14.93;8.83;;;;;;;5.84;100.00;95510.06;5094150;28;20930;-37
2021/12/12 04:22:54;;;;;;;13.83;8.90;;;;;;;5.62;100.00;95484.41;5094539;28;20790;-36
2021/12/12 04:25:22;;;;;;;17.17;9.37;;;;;;;5.80;100.00;95506.31;5094206;28;20452;-37
2021/12/12 04:27:49;;;;;;;23.57;11.47;;;;;;;5.82;100.00;95512.13;5094161;28;20973;-37
2021/12/12 04:30:19;;;;;;;15.77;8.70;;;;;;;5.79;100.00;95502.09;5094120;28;20910;-37
2021/12/12 04:32:47;;;;;;;17.57;10.43;;;;;;;5.82;100.00;95498.97;5094410;28;20462;-37
2021/12/12 04:35:20;;;;;;;36.30;18.27;;;;;;;5.84;100.00;95517.97;5094798;28;20458;-37
2021/12/12 04:37:48;;;;;;;28.90;13.93;;;;;;;5.83;100.00;95517.19;5094108;28;20484;-36
2021/12/12 04:40:18;;;;;;;16.30;10.47;;;;;;;5.81;100.00;95518.44;5093942;28;20529;-36
2021/12/12 04:42:47;;;;;;;15.80;11.20;;;;;;;5.83;100.00;95517.19;5094540;28;20435;-36
2021/12/12 04:45:26;;;;;;;9.23;7.63;;;;;;;5.86;100.00;95521.16;5094217;28;20442;-37
2021/12/12 04:50:52;;;;;;;28.03;14.27;;;;;;;5.87;100.00;95543.81;5093939;28;20914;-37
2021/12/12 04:53:26;;;;;;;15.13;10.47;;;;;;;5.87;100.00;95544.66;5094053;28;20533;-37
2021/12/12 04:56:00;;;;;;;14.70;8.10;;;;;;;5.88;100.00;95548.06;5093706;28;20423;-37
2021/12/12 04:58:36;;;;;;;11.77;8.50;;;;;;;5.86;100.00;95558.84;5094017;28;20783;-37
2021/12/12 05:01:10;;;;;;;27.00;12.77;;;;;;;5.87;100.00;95565.72;5093924;28;20474;-37
2021/12/12 05:03:47;;;;;;;32.30;15.50;;;;;;;5.84;100.00;95576.72;5093386;28;20485;-37
2021/12/12 05:06:22;;;;;;;35.60;18.87;;;;;;;5.81;100.00;95582.47;5093630;28;20434;-37
2021/12/12 05:08:53;;;;;;;30.80;15.90;;;;;;;5.75;100.00;95578.13;5093666;28;20423;-37
2021/12/12 05:11:26;;;;;;;37.10;19.73;;;;;;;5.53;100.00;95560.34;5094503;28;20427;-37
2021/12/12 05:13:56;;;;;;;42.90;22.67;;;;;;;5.55;100.00;95583.81;5093853;28;20424;-37
2021/12/12 05:16:28;;;;;;;34.03;15.83;;;;;;;5.48;100.00;95589.19;5093523;28;20538;-36
2021/12/12 05:19:05;;;;;;;11.97;7.63;;;;;;;5.49;100.00;95590.81;5093921;28;20791;-37
2021/12/12 05:21:37;;;;;;;36.00;21.33;;;;;;;5.54;100.00;95598.00;5093412;28;20536;-37
2021/12/12 05:24:09;;;;;;;29.23;19.77;;;;;;;5.52;100.00;95621.13;5093533;28;20437;-36
2021/12/12 05:26:42;;;;;;;15.60;10.87;;;;;;;5.50;100.00;95633.72;5093563;28;20428;-36
2021/12/12 05:29:20;;;;;;;15.73;9.40;;;;;;;5.52;100.00;95647.44;5093422;28;20430;-37
2021/12/12 05:31:51;;;;;;;28.00;15.03;;;;;;;5.54;100.00;95658.56;5093775;28;20485;-37
2021/12/12 05:34:21;;;;;;;26.90;15.40;;;;;;;5.56;100.00;95659.13;5091856;28;20431;-38
2021/12/12 05:36:51;;;;;;;48.50;20.77;;;;;;;5.58;100.00;95657.06;5091168;28;20442;-37
2021/12/12 05:39:19;;;;;;;39.73;23.67;;;;;;;5.54;100.00;95655.91;5091340;28;20446;-37
2021/12/12 05:41:47;;;;;;;34.30;20.40;;;;;;;5.45;100.00;95663.38;5091206;28;20581;-38
2021/12/12 05:44:15;;;;;;;59.33;32.23;;;;;;;5.30;100.00;95687.53;5091156;28;20447;-37
2021/12/12 05:46:43;;;;;;;45.37;23.03;;;;;;;5.26;100.00;95694.28;5091188;28;20474;-38
2021/12/12 05:49:13;;;;;;;38.70;20.67;;;;;;;5.24;100.00;95685.81;5090762;28;21047;-38
2021/12/12 05:51:41;;;;;;;19.23;15.30;;;;;;;5.28;100.00;95686.97;5091190;28;20443;-37
2021/12/12 05:54:08;;;;;;;12.40;8.20;;;;;;;5.33;100.00;95692.34;5091097;28;20443;-37
2021/12/12 05:56:38;;;;;;;5.13;3.80;;;;;;;5.36;100.00;95696.34;5091016;28;20534;-37
2021/12/12 05:59:08;;;;;;;8.80;7.20;;;;;;;5.48;100.00;95710.28;5091344;28;20800;-37
2021/12/12 06:01:36;;;;;;;21.37;10.03;;;;;;;5.64;100.00;95727.25;5090953;28;20828;-37
2021/12/12 06:04:04;;;;;;;2.63;2.43;;;;;;;5.70;100.00;95734.22;5091009;28;20478;-37
2021/12/12 06:06:38;;;;;;;5.53;3.77;;;;;;;5.78;100.00;95745.44;5091265;28;20812;-37
2021/12/12 06:09:08;;;;;;;16.30;7.77;;;;;;;5.79;100.00;95754.94;5094655;28;20438;-38
2021/12/12 06:11:38;;;;;;;32.00;17.50;;;;;;;5.70;100.00;95754.47;5094650;28;20519;-38
2021/12/12 06:14:08;;;;;;;27.23;15.43;;;;;;;5.79;100.00;95760.22;5094275;28;20435;-37
2021/12/12 06:16:37;;;;;;;5.40;4.03;;;;;;;5.78;100.00;95761.22;5094631;28;20439;-38
2021/12/12 06:19:08;;;;;;;11.57;7.90;;;;;;;5.87;100.00;95755.38;5094587;28;20446;-38
2021/12/12 06:21:41;;;;;;;12.97;6.93;;;;;;;6.18;100.00;95760.50;5094428;28;20470;-38
2021/12/12 06:24:09;;;;;;;7.73;5.13;;;;;;;6.37;100.00;95759.31;5094489;28;20446;-37
2021/12/12 06:26:38;;;;;;;6.97;4.50;;;;;;;6.71;100.00;95777.84;5094052;28;20451;-36
2021/12/12 06:29:07;;;;;;;32.07;13.20;;;;;;;7.01;100.00;95776.78;5095518;28;20522;-36
2021/12/12 06:31:37;;;;;;;86.90;45.77;;;;;;;7.23;100.00;95788.25;5096623;28;20447;-37
2021/12/12 06:34:06;;;;;;;118.27;44.23;;;;;;;7.34;100.00;95795.31;5096609;28;20424;-37
2021/12/12 06:36:34;;;;;;;98.83;48.23;;;;;;;7.48;100.00;95795.75;5096278;28;20931;-37
2021/12/12 06:39:06;;;;;;;41.63;25.30;;;;;;;7.71;100.00;95808.00;5096507;28;20439;-37
2021/12/12 06:41:35;;;;;;;20.00;12.83;;;;;;;7.87;100.00;95819.63;5096158;28;20483;-36
2021/12/12 06:44:04;;;;;;;19.53;9.27;;;;;;;7.92;99.84;95834.75;5096140;28;21033;-36
2021/12/12 06:46:32;;;;;;;14.53;9.07;;;;;;;7.91;99.48;95841.84;5094548;28;20451;-36
2021/12/12 06:49:00;;;;;;;17.97;12.50;;;;;;;8.05;99.78;95852.13;5094022;28;20894;-37
2021/12/12 06:51:29;;;;;;;19.63;13.00;;;;;;;8.24;99.19;95864.00;5093760;28;20451;-36
2021/12/12 06:53:57;;;;;;;15.90;11.43;;;;;;;8.45;98.99;95867.72;5094108;28;20435;-37
2021/12/12 06:56:28;;;;;;;3.30;2.97;;;;;;;8.76;98.40;95873.44;5093850;28;20453;-36
2021/12/12 06:58:57;;;;;;;2.93;2.73;;;;;;;9.04;95.28;95868.97;5093675;28;20451;-35
2021/12/12 07:01:30;;;;;;;1.97;1.83;;;;;;;9.21;92.81;95861.72;5093682;28;20487;-36
2021/12/12 07:03:58;;;;;;;2.23;2.03;;;;;;;9.34;90.89;95876.44;5093734;28;20505;-37
2021/12/12 07:06:29;;;;;;;2.57;2.37;;;;;;;9.33;89.63;95891.50;5093722;28;20443;-36
2021/12/12 07:08:59;;;;;;;5.00;3.97;;;;;;;9.19;89.64;95887.66;5093637;28;20522;-37
2021/12/12 07:11:29;;;;;;;6.97;5.50;;;;;;;9.21;92.30;95912.06;5093526;28;20542;-37
2021/12/12 07:13:57;;;;;;;36.20;16.10;;;;;;;9.10;93.67;95905.84;5093272;28;20431;-35
2021/12/12 07:16:25;;;;;;;16.90;8.20;;;;;;;8.63;95.55;95874.59;5093804;28;20478;-37
2021/12/12 07:18:54;;;;;;;51.27;19.20;;;;;;;8.66;96.02;95910.34;5093472;28;20483;-35
2021/12/12 07:21:23;;;;;;;42.07;21.70;;;;;;;8.63;97.03;95935.44;5093497;28;20447;-36
2021/12/12 07:23:50;;;;;;;31.40;19.93;;;;;;;8.43;97.87;95933.31;5095372;28;20439;-35
2021/12/12 07:26:19;;;;;;;46.33;26.80;;;;;;;8.43;98.64;95938.59;5095652;28;20438;-36
2021/12/12 07:28:48;;;;;;;22.67;13.47;;;;;;;8.36;99.36;95944.03;5095229;28;20473;-36
2021/12/12 07:31:18;;;;;;;18.47;12.50;;;;;;;8.32;99.17;95944.75;5095520;28;20450;-37
2021/12/12 07:33:49;;;;;;;19.07;13.10;;;;;;;8.31;100.00;95951.09;5095839;28;20442;-36
2021/12/12 07:36:18;;;;;;;64.97;32.23;;;;;;;8.29;99.85;95954.00;5095398;28;20424;-36
2021/12/12 07:38:49;;;;;;;128.30;54.23;;;;;;;8.29;100.00;95966.41;5095713;28;20450;-37
2021/12/12 07:41:20;;;;;;;131.60;52.40;;;;;;;8.27;100.00;95976.44;5095281;28;20438;-36
2021/12/12 07:43:49;;;;;;;450.00;152.60;;;;;;;8.26;100.00;95970.34;5095328;28;20428;-36
2021/12/12 07:46:17;;;;;;;84.80;36.10;;;;;;;8.25;100.00;95973.22;5095177;28;20914;-36
2021/12/12 07:48:45;;;;;;;61.10;25.87;;;;;;;8.24;100.00;95966.31;5093928;28;20946;-37
2021/12/12 07:51:13;;;;;;;33.30;14.30;;;;;;;8.26;100.00;95959.78;5092403;28;20538;-36
2021/12/12 07:53:41;;;;;;;17.33;9.47;;;;;;;8.28;100.00;95962.16;5093050;28;20443;-35
2021/12/12 07:56:08;;;;;;;25.40;12.50;;;;;;;8.30;100.00;95970.66;5092715;28;20534;-35
2021/12/12 07:58:38;;;;;;;59.00;25.23;;;;;;;8.37;100.00;95976.59;5092630;28;21260;-36
2021/12/12 08:01:07;;;;;;;59.60;26.20;;;;;;;8.45;100.00;95986.78;5092557;28;21013;-36
2021/12/12 08:03:36;;;;;;;35.60;17.33;;;;;;;8.49;100.00;95990.53;5091696;28;20495;-36
2021/12/12 08:06:08;;;;;;;131.77;58.80;;;;;;;8.50;99.59;96001.94;5092566;28;20454;-36
2021/12/12 08:08:36;;;;;;;137.43;56.90;;;;;;;8.55;100.00;95992.22;5092473;28;20428;-37
2021/12/12 08:11:06;;;;;;;107.60;46.27;;;;;;;8.61;100.00;96001.84;5092669;28;20450;-41
2021/12/12 08:13:35;;;;;;;56.27;26.50;;;;;;;8.72;100.00;95999.34;5092406;28;20446;-36
2021/12/12 08:16:08;;;;;;;37.50;19.00;;;;;;;8.88;100.00;96001.13;5092141;28;20454;-37
2021/12/12 08:18:39;;;;;;;57.13;24.83;;;;;;;9.08;100.00;96015.69;5092312;28;20444;-37
2021/12/12 08:21:07;;;;;;;8.53;6.60;;;;;;;9.32;99.53;96029.50;5092335;28;20885;-35
2021/12/12 08:23:36;;;;;;;3.60;3.20;;;;;;;9.37;97.74;96011.81;5092362;28;20578;-36
2021/12/12 08:26:07;;;;;;;2.83;2.40;;;;;;;9.64;95.30;96043.66;5092147;28;20462;-35
2021/12/12 08:28:34;;;;;;;4.20;3.50;;;;;;;9.74;92.33;96042.16;5091687;28;20431;-36
2021/12/12 08:31:02;;;;;;;2.03;1.60;;;;;;;9.93;89.95;96055.88;5091535;28;20475;-36
2021/12/12 08:33:32;;;;;;;6.77;5.03;;;;;;;10.12;91.37;96045.72;5092078;28;21003;-35
2021/12/12 08:36:01;;;;;;;25.60;13.53;;;;;;;10.50;89.43;96060.69;5092220;28;20447;-36
2021/12/12 08:38:29;;;;;;;6.67;4.50;;;;;;;10.81;88.20;96060.91;5091896;28;20445;-35
2021/12/12 08:40:59;;;;;;;11.40;6.43;;;;;;;11.07;87.86;96051.25;5091649;28;20526;-37
2021/12/12 08:43:29;;;;;;;5.10;4.60;;;;;;;11.12;82.89;96072.53;5091604;28;20485;-34
2021/12/12 08:45:59;;;;;;;134.97;52.97;;;;;;;11.04;82.13;96071.16;5092306;28;20798;-36
2021/12/12 08:48:30;;;;;;;34.23;13.73;;;;;;;11.09;81.38;96053.66;5092013;28;20477;-35
2021/12/12 08:51:03;;;;;;;5.10;2.53;;;;;;;11.16;83.71;96078.91;5092059;28;20423;-34
2021/12/12 08:53:31;;;;;;;4.10;2.70;;;;;;;11.00;81.05;96074.59;5091596;28;20435;-34
2021/12/12 08:56:00;;;;;;;30.83;14.23;;;;;;;10.69;83.84;96084.19;5091220;28;20446;-36
2021/12/12 08:58:30;;;;;;;10.50;7.90;;;;;;;10.55;84.72;96089.91;5091881;28;20493;-37
2021/12/12 09:01:00;;;;;;;8.27;5.63;;;;;;;10.41;84.45;96086.91;5091619;28;20434;-35
2021/12/12 09:03:33;;;;;;;32.77;13.70;;;;;;;10.38;83.92;96083.94;5091194;28;21056;-36
2021/12/12 09:06:02;;;;;;;6.23;4.10;;;;;;;10.27;86.30;96079.56;5091681;28;20443;-35
2021/12/12 09:08:37;;;;;;;4.20;3.80;;;;;;;10.15;86.66;96079.69;5091055;28;20454;-35
2021/12/12 09:11:09;;;;;;;5.23;4.10;;;;;;;9.92;88.53;96075.50;5091524;28;20442;-36
2021/12/12 09:13:44;;;;;;;11.83;8.27;;;;;;;9.94;88.62;96086.66;5091415;28;20431;-34
2021/12/12 09:16:16;;;;;;;4.63;4.33;;;;;;;9.90;89.05;96088.22;5091839;28;20422;-36
2021/12/12 09:18:48;;;;;;;8.67;5.27;;;;;;;9.63;90.59;96055.28;5091461;28;21029;-34
2021/12/12 09:21:25;;;;;;;4.80;4.30;;;;;;;9.70;91.20;96094.06;5091275;28;20450;-34
2021/12/12 09:24:03;;;;;;;3.43;3.13;;;;;;;9.66;92.29;96096.44;5091627;28;20554;-34
2021/12/12 09:26:37;;;;;;;5.90;5.10;;;;;;;9.59;92.07;96090.50;5091661;28;20510;-35
2021/12/12 09:29:13;;;;;;;4.67;4.00;;;;;;;9.51;92.63;96085.66;5091277;28;20532;-33
2021/12/12 09:31:46;;;;;;;4.70;3.00;;;;;;;9.46;91.19;96098.81;5091358;28;20784;-34
2021/12/12 09:34:20;;;;;;;3.53;3.33;;;;;;;9.48;92.09;96102.03;5090779;28;20432;-34
2021/12/12 09:36:57;;;;;;;6.73;4.50;;;;;;;9.56;92.86;96088.34;5091557;28;20431;-36
2021/12/12 09:39:29;;;;;;;7.00;4.20;;;;;;;9.70;92.02;96094.06;5091203;28;20430;-34
2021/12/12 09:42:15;;;;;;;4.17;3.80;;;;;;;9.71;89.77;96101.78;5093133;28;20477;-33
2021/12/12 09:44:59;;;;;;;6.20;5.17;;;;;;;9.84;90.40;96100.59;5095341;28;20431;-36
2021/12/12 09:48:25;;;;;;;10.20;6.53;;;;;;;10.02;90.74;96102.13;5095053;28;20430;-35
2021/12/12 09:51:14;;;;;;;7.83;4.77;;;;;;;10.30;90.55;96102.97;5095050;28;20434;-36
2021/12/12 09:54:20;;;;;;;3.63;2.73;;;;;;;10.56;89.38;96107.47;5095530;28;20929;-35
2021/12/12 09:56:56;;;;;;;4.60;2.60;;;;;;;10.74;88.84;96108.13;5052373;28;20448;-34
2021/12/12 09:59:39;;;;;;;5.37;3.97;;;;;;;10.76;85.46;96114.00;5051997;28;20955;-34
2021/12/12 10:02:13;;;;;;;3.00;2.60;;;;;;;10.68;85.59;96101.16;5052188;28;20507;-35
2021/12/12 10:04:52;;;;;;;3.37;3.10;;;;;;;10.74;85.62;96118.75;5052054;28;20472;-37
2021/12/12 10:07:34;;;;;;;4.37;3.17;;;;;;;10.73;86.49;96127.75;5052172;28;20445;-35
2021/12/12 10:10:08;;;;;;;3.87;2.73;;;;;;;10.75;86.30;96121.13;5052172;28;20978;-36
2021/12/12 10:12:40;;;;;;;5.90;4.27;;;;;;;10.63;85.35;96123.97;5051594;28;20458;-34
2021/12/12 10:15:14;;;;;;;2.87;2.63;;;;;;;10.56;86.78;96115.41;5052085;28;20461;-34
2021/12/12 10:17:45;;;;;;;3.30;2.70;;;;;;;10.36;87.09;96113.38;5052033;28;20436;-34
2021/12/12 10:20:18;;;;;;;5.27;3.63;;;;;;;10.15;86.57;96116.84;5051902;28;20440;-36
2021/12/12 10:23:01;;;;;;;3.10;2.80;;;;;;;9.91;88.39;96116.31;5051767;28;20472;-34
2021/12/12 10:25:35;;;;;;;2.77;2.53;;;;;;;9.88;89.42;96133.53;5051549;28;20448;-34
2021/12/12 10:28:15;;;;;;;4.03;2.27;;;;;;;9.78;89.67;96136.06;5051739;28;20432;-35
2021/12/12 10:30:49;;;;;;;1.73;1.60;;;;;;;9.55;89.34;96126.47;5051828;28;20429;-35
2021/12/12 10:33:20;;;;;;;4.73;2.53;;;;;;;9.60;88.54;96137.97;5088550;28;20482;-34
2021/12/12 10:35:53;;;;;;;5.00;4.27;;;;;;;9.51;89.38;96123.53;5094258;28;20451;-34
2021/12/12 10:38:26;;;;;;;3.97;2.73;;;;;;;9.58;89.46;96137.41;5094631;28;20435;-34
2021/12/12 10:41:03;;;;;;;2.97;2.77;;;;;;;9.58;91.00;96137.41;5093763;28;20438;-35
2021/12/12 10:43:36;;;;;;;9.33;6.20;;;;;;;9.67;91.72;96135.13;5094364;28;20524;-35
2021/12/12 10:46:08;;;;;;;5.90;3.80;;;;;;;9.77;91.48;96142.41;5094376;28;20423;-36
2021/12/12 10:48:44;;;;;;;5.23;3.40;;;;;;;9.81;91.56;96160.22;5096017;28;20426;-34
2021/12/12 10:51:16;;;;;;;6.70;3.30;;;;;;;9.79;90.81;96167.63;5095995;28;20423;-33
2021/12/12 10:53:49;;;;;;;4.00;3.23;;;;;;;9.73;89.81;96157.22;5096285;28;20458;-34
2021/12/12 10:56:27;;;;;;;5.60;4.33;;;;;;;9.57;89.62;96158.84;5095866;28;20430;-35
2021/12/12 10:58:59;;;;;;;3.43;2.20;;;;;;;9.50;89.64;96163.53;5095882;28;20501;-33
2021/12/12 11:01:31;;;;;;;2.80;2.50;;;;;;;9.34;88.99;96152.72;5095818;28;20426;-34
2021/12/12 11:04:10;;;;;;;3.10;2.90;;;;;;;9.28;90.14;96135.16;5095472;28;20499;-33
2021/12/12 11:06:39;;;;;;;9.13;7.50;;;;;;;9.25;90.61;96114.47;5095763;28;20434;-33
2021/12/12 11:09:09;;;;;;;4.97;3.20;;;;;;;9.41;90.80;96129.50;5095961;28;20532;-33
2021/12/12 11:11:42;;;;;;;8.80;5.43;;;;;;;9.39;91.87;96133.44;5095534;28;20533;-36
2021/12/12 11:14:17;;;;;;;6.77;5.80;;;;;;;9.48;91.48;96131.97;5095868;28;20459;-33
2021/12/12 11:16:50;;;;;;;5.57;5.07;;;;;;;9.70;90.93;96163.00;5095541;28;20433;-34
2021/12/12 11:19:25;;;;;;;7.47;4.73;;;;;;;9.61;90.99;96147.53;5095517;28;20849;-34
2021/12/12 11:21:58;;;;;;;4.20;3.43;;;;;;;9.66;89.68;96152.09;5095748;28;20434;-35
2021/12/12 11:24:28;;;;;;;4.23;3.83;;;;;;;9.53;91.06;96147.94;5095301;28;20489;-36
2021/12/12 11:27:01;;;;;;;5.63;4.23;;;;;;;9.54;90.90;96154.03;5095621;28;20786;-34
2021/12/12 11:29:37;;;;;;;2.80;2.40;;;;;;;9.41;89.99;96156.00;5095608;28;20971;-34
2021/12/12 11:32:10;;;;;;;9.67;5.60;;;;;;;9.33;90.30;96158.25;5095216;28;20922;-35
2021/12/12 11:34:38;;;;;;;7.20;4.40;;;;;;;9.21;91.79;96155.72;5096348;28;20431;-35
2021/12/12 11:37:16;;;;;;;9.30;5.93;;;;;;;9.19;92.21;96163.09;5095057;28;20443;-36
2021/12/12 11:39:51;;;;;;;14.23;9.90;;;;;;;9.18;91.07;96157.00;5095143;28;20434;-36
2021/12/12 11:42:25;;;;;;;8.20;6.80;;;;;;;9.13;91.20;96164.06;5095091;28;20518;-36
2021/12/12 11:45:02;;;;;;;8.77;6.13;;;;;;;9.02;92.27;96171.84;5095262;28;20601;-34
2021/12/12 11:47:47;;;;;;;20.60;8.47;;;;;;;8.86;93.37;96179.78;5094907;28;20514;-34
2021/12/12 11:50:29;;;;;;;9.40;7.90;;;;;;;8.74;93.50;96179.88;5094901;28;20484;-36
2021/12/12 11:53:02;;;;;;;9.43;7.60;;;;;;;8.65;93.65;96183.94;5094871;28;20438;-33
2021/12/12 11:55:37;;;;;;;7.97;6.07;;;;;;;8.50;92.42;96192.44;5094734;28;20434;-34
2021/12/12 11:58:19;;;;;;;12.73;8.83;;;;;;;8.46;94.60;96197.38;5095028;28;20510;-33
2021/12/12 12:00:53;;;;;;;8.10;6.37;;;;;;;8.33;94.64;96197.66;5095053;28;20431;-34
2021/12/12 12:03:34;;;;;;;10.03;7.40;;;;;;;8.23;94.59;96192.16;5092091;28;20856;-36